sensor_id;sensor_type;location;lat;lon;timestamp;P1;durP1;ratioP1;P2;durP2;ratioP2
22240;SDS011;11289;52.524;13.694;2024-03-25T00:02:14;4.82;;;3.13;;
22240;SDS011;11289;52.524;13.694;2024-03-25T00:04:40;4.72;;;3.72;;
22240;SDS011;11289;52.524;13.694;2024-03-25T00:07:06;4.82;;;3.55;;
22240;SDS011;11289;52.524;13.694;2024-03-25T00:09:32;4.32;;;3.42;;
22240;SDS011;11289;52.524;13.694;2024-03-25T00:11:58;3.67;;;3.15;;
22240;SDS011;11289;52.524;13.694;2024-03-25T00:14:24;5.60;;;3.80;;
22240;SDS011;11289;52.524;13.694;2024-03-25T00:16:50;5.97;;;3.65;;
22240;SDS011;11289;52.524;13.694;2024-03-25T00:19:16;4.25;;;3.63;;
22240;SDS011;11289;52.524;13.694;2024-03-25T00:21:42;5.13;;;3.70;;
22240;SDS011;11289;52.524;13.694;2024-03-25T00:24:08;4.53;;;3.50;;
22240;SDS011;11289;52.524;13.694;2024-03-25T00:26:34;5.10;;;3.63;;
22240;SDS011;11289;52.524;13.694;2024-03-25T00:29:00;4.72;;;3.58;;
22240;SDS011;11289;52.524;13.694;2024-03-25T00:31:25;7.72;;;3.47;;
22240;SDS011;11289;52.524;13.694;2024-03-25T00:33:51;3.97;;;3.40;;
22240;SDS011;11289;52.524;13.694;2024-03-25T00:36:17;4.90;;;3.08;;
22240;SDS011;11289;52.524;13.694;2024-03-25T00:38:43;4.97;;;3.60;;
22240;SDS011;11289;52.524;13.694;2024-03-25T00:41:09;7.63;;;3.30;;
22240;SDS011;11289;52.524;13.694;2024-03-25T00:43:35;4.60;;;3.22;;
22240;SDS011;11289;52.524;13.694;2024-03-25T00:46:01;4.60;;;2.97;;
22240;SDS011;11289;52.524;13.694;2024-03-25T00:48:27;4.10;;;2.65;;
22240;SDS011;11289;52.524;13.694;2024-03-25T00:50:53;4.43;;;2.92;;
22240;SDS011;11289;52.524;13.694;2024-03-25T00:53:19;4.13;;;3.17;;
22240;SDS011;11289;52.524;13.694;2024-03-25T00:55:45;3.42;;;3.13;;
22240;SDS011;11289;52.524;13.694;2024-03-25T00:58:11;5.78;;;3.70;;
22240;SDS011;11289;52.524;13.694;2024-03-25T01:00:37;5.18;;;3.20;;
22240;SDS011;11289;52.524;13.694;2024-03-25T01:03:03;4.75;;;3.25;;
22240;SDS011;11289;52.524;13.694;2024-03-25T01:05:29;4.13;;;2.90;;
22240;SDS011;11289;52.524;13.694;2024-03-25T01:07:55;4.22;;;3.08;;
22240;SDS011;11289;52.524;13.694;2024-03-25T01:10:20;5.90;;;3.47;;
22240;SDS011;11289;52.524;13.694;2024-03-25T01:12:46;4.68;;;3.40;;
22240;SDS011;11289;52.524;13.694;2024-03-25T01:15:12;5.63;;;3.75;;
22240;SDS011;11289;52.524;13.694;2024-03-25T01:17:38;5.78;;;3.20;;
22240;SDS011;11289;52.524;13.694;2024-03-25T01:20:04;5.50;;;3.35;;
22240;SDS011;11289;52.524;13.694;2024-03-25T01:22:31;5.13;;;3.15;;
22240;SDS011;11289;52.524;13.694;2024-03-25T01:24:57;5.97;;;4.40;;
22240;SDS011;11289;52.524;13.694;2024-03-25T01:27:23;5.15;;;3.72;;
22240;SDS011;11289;52.524;13.694;2024-03-25T01:29:49;5.93;;;3.75;;
22240;SDS011;11289;52.524;13.694;2024-03-25T01:32:15;6.97;;;3.97;;
22240;SDS011;11289;52.524;13.694;2024-03-25T01:34:41;4.95;;;3.13;;
22240;SDS011;11289;52.524;13.694;2024-03-25T01:37:07;5.28;;;3.40;;
22240;SDS011;11289;52.524;13.694;2024-03-25T01:39:33;5.55;;;3.80;;
22240;SDS011;11289;52.524;13.694;2024-03-25T01:42:00;5.75;;;3.65;;
22240;SDS011;11289;52.524;13.694;2024-03-25T01:44:26;7.07;;;4.05;;
22240;SDS011;11289;52.524;13.694;2024-03-25T01:46:51;6.72;;;3.70;;
22240;SDS011;11289;52.524;13.694;2024-03-25T01:49:18;5.97;;;4.03;;
22240;SDS011;11289;52.524;13.694;2024-03-25T01:51:45;5.35;;;3.55;;
22240;SDS011;11289;52.524;13.694;2024-03-25T01:54:11;4.72;;;3.55;;
22240;SDS011;11289;52.524;13.694;2024-03-25T01:56:41;7.88;;;4.15;;
22240;SDS011;11289;52.524;13.694;2024-03-25T01:59:09;7.00;;;4.43;;
22240;SDS011;11289;52.524;13.694;2024-03-25T02:01:35;6.13;;;4.22;;
22240;SDS011;11289;52.524;13.694;2024-03-25T02:04:02;8.20;;;5.00;;
22240;SDS011;11289;52.524;13.694;2024-03-25T02:06:28;9.82;;;4.82;;
22240;SDS011;11289;52.524;13.694;2024-03-25T02:08:56;7.63;;;4.78;;
22240;SDS011;11289;52.524;13.694;2024-03-25T02:11:23;8.52;;;5.30;;
22240;SDS011;11289;52.524;13.694;2024-03-25T02:13:50;8.38;;;4.97;;
22240;SDS011;11289;52.524;13.694;2024-03-25T02:16:17;8.98;;;5.75;;
22240;SDS011;11289;52.524;13.694;2024-03-25T02:18:43;6.68;;;4.70;;
22240;SDS011;11289;52.524;13.694;2024-03-25T02:21:09;9.90;;;4.90;;
22240;SDS011;11289;52.524;13.694;2024-03-25T02:23:36;9.68;;;5.38;;
22240;SDS011;11289;52.524;13.694;2024-03-25T02:26:04;10.07;;;6.20;;
22240;SDS011;11289;52.524;13.694;2024-03-25T02:28:30;9.32;;;5.55;;
22240;SDS011;11289;52.524;13.694;2024-03-25T02:30:56;8.45;;;5.38;;
22240;SDS011;11289;52.524;13.694;2024-03-25T02:33:22;9.20;;;5.70;;
22240;SDS011;11289;52.524;13.694;2024-03-25T02:35:48;8.70;;;5.25;;
22240;SDS011;11289;52.524;13.694;2024-03-25T02:38:14;9.55;;;5.55;;
22240;SDS011;11289;52.524;13.694;2024-03-25T02:40:43;10.50;;;5.25;;
22240;SDS011;11289;52.524;13.694;2024-03-25T02:43:10;8.82;;;6.00;;
22240;SDS011;11289;52.524;13.694;2024-03-25T02:45:36;8.48;;;4.95;;
22240;SDS011;11289;52.524;13.694;2024-03-25T02:48:02;6.63;;;5.15;;
22240;SDS011;11289;52.524;13.694;2024-03-25T02:50:28;6.22;;;4.32;;
22240;SDS011;11289;52.524;13.694;2024-03-25T02:52:54;4.95;;;3.15;;
22240;SDS011;11289;52.524;13.694;2024-03-25T02:55:20;6.88;;;3.25;;
22240;SDS011;11289;52.524;13.694;2024-03-25T02:57:46;4.70;;;3.05;;
22240;SDS011;11289;52.524;13.694;2024-03-25T03:00:12;5.20;;;3.17;;
22240;SDS011;11289;52.524;13.694;2024-03-25T03:02:39;3.72;;;2.63;;
22240;SDS011;11289;52.524;13.694;2024-03-25T03:05:05;3.90;;;2.13;;
22240;SDS011;11289;52.524;13.694;2024-03-25T03:07:31;3.70;;;2.55;;
22240;SDS011;11289;52.524;13.694;2024-03-25T03:09:57;3.05;;;1.95;;
22240;SDS011;11289;52.524;13.694;2024-03-25T03:12:23;3.00;;;1.85;;
22240;SDS011;11289;52.524;13.694;2024-03-25T03:14:49;3.17;;;1.92;;
22240;SDS011;11289;52.524;13.694;2024-03-25T03:17:14;3.58;;;1.67;;
22240;SDS011;11289;52.524;13.694;2024-03-25T03:19:40;1.98;;;1.55;;
22240;SDS011;11289;52.524;13.694;2024-03-25T03:22:06;2.95;;;1.70;;
22240;SDS011;11289;52.524;13.694;2024-03-25T03:24:32;2.80;;;1.27;;
22240;SDS011;11289;52.524;13.694;2024-03-25T03:26:58;3.90;;;1.88;;
22240;SDS011;11289;52.524;13.694;2024-03-25T03:29:24;3.67;;;1.90;;
22240;SDS011;11289;52.524;13.694;2024-03-25T03:31:50;3.25;;;1.60;;
22240;SDS011;11289;52.524;13.694;2024-03-25T03:34:16;2.65;;;1.70;;
22240;SDS011;11289;52.524;13.694;2024-03-25T03:36:42;3.00;;;2.05;;
22240;SDS011;11289;52.524;13.694;2024-03-25T03:39:08;3.05;;;1.80;;
22240;SDS011;11289;52.524;13.694;2024-03-25T03:41:35;4.20;;;2.22;;
22240;SDS011;11289;52.524;13.694;2024-03-25T03:44:01;4.35;;;2.00;;
22240;SDS011;11289;52.524;13.694;2024-03-25T03:46:28;3.53;;;2.10;;
22240;SDS011;11289;52.524;13.694;2024-03-25T03:48:53;2.75;;;1.58;;
22240;SDS011;11289;52.524;13.694;2024-03-25T03:51:19;3.22;;;2.10;;
22240;SDS011;11289;52.524;13.694;2024-03-25T03:53:45;4.88;;;2.67;;
22240;SDS011;11289;52.524;13.694;2024-03-25T03:56:11;4.10;;;2.13;;
22240;SDS011;11289;52.524;13.694;2024-03-25T03:58:37;4.88;;;2.35;;
22240;SDS011;11289;52.524;13.694;2024-03-25T04:01:03;3.60;;;2.38;;
22240;SDS011;11289;52.524;13.694;2024-03-25T04:03:30;4.80;;;2.22;;
22240;SDS011;11289;52.524;13.694;2024-03-25T04:05:56;5.45;;;2.67;;
22240;SDS011;11289;52.524;13.694;2024-03-25T04:08:22;5.38;;;2.50;;
22240;SDS011;11289;52.524;13.694;2024-03-25T04:10:48;4.30;;;2.25;;
22240;SDS011;11289;52.524;13.694;2024-03-25T04:13:14;5.63;;;2.53;;
22240;SDS011;11289;52.524;13.694;2024-03-25T04:15:40;5.63;;;3.03;;
22240;SDS011;11289;52.524;13.694;2024-03-25T04:18:07;4.32;;;2.47;;
22240;SDS011;11289;52.524;13.694;2024-03-25T04:20:40;7.40;;;2.90;;
22240;SDS011;11289;52.524;13.694;2024-03-25T04:23:07;5.13;;;2.90;;
22240;SDS011;11289;52.524;13.694;2024-03-25T04:25:33;6.43;;;2.75;;
22240;SDS011;11289;52.524;13.694;2024-03-25T04:28:00;5.13;;;3.00;;
22240;SDS011;11289;52.524;13.694;2024-03-25T04:30:26;4.80;;;2.90;;
22240;SDS011;11289;52.524;13.694;2024-03-25T04:32:51;6.93;;;3.58;;
22240;SDS011;11289;52.524;13.694;2024-03-25T04:35:17;4.88;;;3.30;;
22240;SDS011;11289;52.524;13.694;2024-03-25T04:37:43;9.65;;;3.03;;
22240;SDS011;11289;52.524;13.694;2024-03-25T04:40:10;6.25;;;3.15;;
22240;SDS011;11289;52.524;13.694;2024-03-25T04:42:37;3.80;;;2.90;;
22240;SDS011;11289;52.524;13.694;2024-03-25T04:45:03;5.82;;;3.75;;
22240;SDS011;11289;52.524;13.694;2024-03-25T04:47:30;7.38;;;2.65;;
22240;SDS011;11289;52.524;13.694;2024-03-25T04:49:56;4.07;;;2.55;;
22240;SDS011;11289;52.524;13.694;2024-03-25T04:52:22;5.03;;;2.97;;
22240;SDS011;11289;52.524;13.694;2024-03-25T04:54:51;6.30;;;2.58;;
22240;SDS011;11289;52.524;13.694;2024-03-25T04:57:17;5.40;;;2.92;;
22240;SDS011;11289;52.524;13.694;2024-03-25T04:59:43;4.88;;;2.97;;
22240;SDS011;11289;52.524;13.694;2024-03-25T05:02:10;4.38;;;2.58;;
22240;SDS011;11289;52.524;13.694;2024-03-25T05:04:35;4.13;;;2.13;;
22240;SDS011;11289;52.524;13.694;2024-03-25T05:07:01;4.05;;;2.65;;
22240;SDS011;11289;52.524;13.694;2024-03-25T05:09:27;2.85;;;1.98;;
22240;SDS011;11289;52.524;13.694;2024-03-25T05:11:53;4.13;;;2.15;;
22240;SDS011;11289;52.524;13.694;2024-03-25T05:14:19;5.28;;;2.75;;
22240;SDS011;11289;52.524;13.694;2024-03-25T05:16:45;3.80;;;1.65;;
22240;SDS011;11289;52.524;13.694;2024-03-25T05:19:11;3.88;;;2.72;;
22240;SDS011;11289;52.524;13.694;2024-03-25T05:21:37;4.60;;;2.22;;
22240;SDS011;11289;52.524;13.694;2024-03-25T05:24:03;6.82;;;2.05;;
22240;SDS011;11289;52.524;13.694;2024-03-25T05:26:29;4.28;;;2.42;;
22240;SDS011;11289;52.524;13.694;2024-03-25T05:28:55;3.83;;;2.22;;
22240;SDS011;11289;52.524;13.694;2024-03-25T05:31:21;5.05;;;2.47;;
22240;SDS011;11289;52.524;13.694;2024-03-25T05:33:47;4.30;;;2.47;;
22240;SDS011;11289;52.524;13.694;2024-03-25T05:36:13;5.93;;;2.78;;
22240;SDS011;11289;52.524;13.694;2024-03-25T05:38:40;3.88;;;2.72;;
22240;SDS011;11289;52.524;13.694;2024-03-25T05:41:07;4.53;;;2.63;;
22240;SDS011;11289;52.524;13.694;2024-03-25T05:43:33;3.58;;;2.55;;
22240;SDS011;11289;52.524;13.694;2024-03-25T05:45:59;5.50;;;3.60;;
22240;SDS011;11289;52.524;13.694;2024-03-25T05:48:25;8.55;;;3.42;;
22240;SDS011;11289;52.524;13.694;2024-03-25T05:51:01;6.47;;;2.80;;
22240;SDS011;11289;52.524;13.694;2024-03-25T05:53:28;6.97;;;2.85;;
22240;SDS011;11289;52.524;13.694;2024-03-25T05:55:55;5.53;;;2.85;;
22240;SDS011;11289;52.524;13.694;2024-03-25T05:58:21;7.43;;;2.95;;
22240;SDS011;11289;52.524;13.694;2024-03-25T06:00:48;5.72;;;3.42;;
22240;SDS011;11289;52.524;13.694;2024-03-25T06:03:14;4.93;;;2.72;;
22240;SDS011;11289;52.524;13.694;2024-03-25T06:05:40;5.20;;;2.65;;
22240;SDS011;11289;52.524;13.694;2024-03-25T06:08:07;5.45;;;2.90;;
22240;SDS011;11289;52.524;13.694;2024-03-25T06:10:44;7.53;;;3.05;;
22240;SDS011;11289;52.524;13.694;2024-03-25T06:13:10;5.03;;;3.08;;
22240;SDS011;11289;52.524;13.694;2024-03-25T06:15:36;5.90;;;2.63;;
22240;SDS011;11289;52.524;13.694;2024-03-25T06:18:01;4.18;;;2.47;;
22240;SDS011;11289;52.524;13.694;2024-03-25T06:20:27;5.93;;;3.03;;
22240;SDS011;11289;52.524;13.694;2024-03-25T06:22:53;6.07;;;2.75;;
22240;SDS011;11289;52.524;13.694;2024-03-25T06:25:19;5.53;;;2.85;;
22240;SDS011;11289;52.524;13.694;2024-03-25T06:27:45;4.38;;;2.97;;
22240;SDS011;11289;52.524;13.694;2024-03-25T06:30:11;4.90;;;2.97;;
22240;SDS011;11289;52.524;13.694;2024-03-25T06:32:56;5.53;;;2.80;;
22240;SDS011;11289;52.524;13.694;2024-03-25T06:35:42;5.13;;;2.67;;
22240;SDS011;11289;52.524;13.694;2024-03-25T06:38:09;4.63;;;2.63;;
22240;SDS011;11289;52.524;13.694;2024-03-25T06:40:35;5.75;;;2.75;;
22240;SDS011;11289;52.524;13.694;2024-03-25T06:43:01;4.88;;;2.42;;
22240;SDS011;11289;52.524;13.694;2024-03-25T06:45:27;4.15;;;2.10;;
22240;SDS011;11289;52.524;13.694;2024-03-25T06:47:53;7.97;;;2.72;;
22240;SDS011;11289;52.524;13.694;2024-03-25T06:50:19;5.95;;;3.03;;
22240;SDS011;11289;52.524;13.694;2024-03-25T06:52:45;4.80;;;2.83;;
22240;SDS011;11289;52.524;13.694;2024-03-25T06:55:11;5.72;;;3.13;;
22240;SDS011;11289;52.524;13.694;2024-03-25T06:57:37;8.02;;;3.28;;
22240;SDS011;11289;52.524;13.694;2024-03-25T07:00:03;4.00;;;3.17;;
22240;SDS011;11289;52.524;13.694;2024-03-25T07:02:32;5.57;;;3.08;;
22240;SDS011;11289;52.524;13.694;2024-03-25T07:04:58;5.25;;;2.92;;
22240;SDS011;11289;52.524;13.694;2024-03-25T07:07:24;7.00;;;3.58;;
22240;SDS011;11289;52.524;13.694;2024-03-25T07:09:50;12.85;;;5.47;;
22240;SDS011;11289;52.524;13.694;2024-03-25T07:12:16;12.43;;;5.95;;
22240;SDS011;11289;52.524;13.694;2024-03-25T07:14:42;8.25;;;4.88;;
22240;SDS011;11289;52.524;13.694;2024-03-25T07:17:08;11.55;;;5.13;;
22240;SDS011;11289;52.524;13.694;2024-03-25T07:19:34;7.82;;;4.03;;
22240;SDS011;11289;52.524;13.694;2024-03-25T07:22:00;9.73;;;3.65;;
22240;SDS011;11289;52.524;13.694;2024-03-25T07:24:26;11.43;;;6.43;;
22240;SDS011;11289;52.524;13.694;2024-03-25T07:26:52;17.40;;;9.45;;
22240;SDS011;11289;52.524;13.694;2024-03-25T07:29:18;12.07;;;6.53;;
22240;SDS011;11289;52.524;13.694;2024-03-25T07:31:43;16.48;;;7.10;;
22240;SDS011;11289;52.524;13.694;2024-03-25T07:34:09;14.63;;;7.47;;
22240;SDS011;11289;52.524;13.694;2024-03-25T07:36:37;13.50;;;6.35;;
22240;SDS011;11289;52.524;13.694;2024-03-25T07:39:04;8.05;;;4.32;;
22240;SDS011;11289;52.524;13.694;2024-03-25T07:41:39;6.57;;;3.88;;
22240;SDS011;11289;52.524;13.694;2024-03-25T07:44:05;6.60;;;2.88;;
22240;SDS011;11289;52.524;13.694;2024-03-25T07:46:31;9.63;;;3.80;;
22240;SDS011;11289;52.524;13.694;2024-03-25T07:48:57;4.85;;;3.00;;
22240;SDS011;11289;52.524;13.694;2024-03-25T07:51:23;8.98;;;2.72;;
22240;SDS011;11289;52.524;13.694;2024-03-25T07:53:49;7.20;;;2.40;;
22240;SDS011;11289;52.524;13.694;2024-03-25T07:56:15;6.28;;;2.13;;
22240;SDS011;11289;52.524;13.694;2024-03-25T07:58:41;6.25;;;2.45;;
22240;SDS011;11289;52.524;13.694;2024-03-25T08:01:07;6.05;;;2.38;;
22240;SDS011;11289;52.524;13.694;2024-03-25T08:03:33;6.75;;;2.60;;
22240;SDS011;11289;52.524;13.694;2024-03-25T08:05:59;4.70;;;2.00;;
22240;SDS011;11289;52.524;13.694;2024-03-25T08:08:25;5.38;;;2.75;;
22240;SDS011;11289;52.524;13.694;2024-03-25T08:10:51;8.57;;;3.60;;
22240;SDS011;11289;52.524;13.694;2024-03-25T08:13:18;4.18;;;3.05;;
22240;SDS011;11289;52.524;13.694;2024-03-25T08:15:48;8.02;;;2.70;;
22240;SDS011;11289;52.524;13.694;2024-03-25T08:18:14;7.25;;;3.67;;
22240;SDS011;11289;52.524;13.694;2024-03-25T08:20:40;7.03;;;3.47;;
22240;SDS011;11289;52.524;13.694;2024-03-25T08:23:06;3.35;;;2.60;;
22240;SDS011;11289;52.524;13.694;2024-03-25T08:25:32;5.32;;;2.58;;
22240;SDS011;11289;52.524;13.694;2024-03-25T08:27:58;3.35;;;1.60;;
22240;SDS011;11289;52.524;13.694;2024-03-25T08:30:24;6.50;;;3.33;;
22240;SDS011;11289;52.524;13.694;2024-03-25T08:32:50;7.75;;;3.15;;
22240;SDS011;11289;52.524;13.694;2024-03-25T08:35:18;8.65;;;4.10;;
22240;SDS011;11289;52.524;13.694;2024-03-25T08:37:43;8.13;;;4.05;;
22240;SDS011;11289;52.524;13.694;2024-03-25T08:40:09;7.05;;;3.40;;
22240;SDS011;11289;52.524;13.694;2024-03-25T08:42:35;7.28;;;3.45;;
22240;SDS011;11289;52.524;13.694;2024-03-25T08:45:02;4.43;;;3.28;;
22240;SDS011;11289;52.524;13.694;2024-03-25T08:47:28;7.60;;;4.32;;
22240;SDS011;11289;52.524;13.694;2024-03-25T08:49:54;6.70;;;3.90;;
22240;SDS011;11289;52.524;13.694;2024-03-25T08:52:20;7.55;;;4.15;;
22240;SDS011;11289;52.524;13.694;2024-03-25T08:54:46;5.68;;;3.17;;
22240;SDS011;11289;52.524;13.694;2024-03-25T08:57:12;5.47;;;3.50;;
22240;SDS011;11289;52.524;13.694;2024-03-25T08:59:38;5.70;;;3.33;;
22240;SDS011;11289;52.524;13.694;2024-03-25T09:02:04;5.72;;;2.88;;
22240;SDS011;11289;52.524;13.694;2024-03-25T09:04:29;6.25;;;2.97;;
22240;SDS011;11289;52.524;13.694;2024-03-25T09:06:55;6.30;;;3.22;;
22240;SDS011;11289;52.524;13.694;2024-03-25T09:09:21;4.15;;;2.85;;
22240;SDS011;11289;52.524;13.694;2024-03-25T09:12:06;6.90;;;2.95;;
22240;SDS011;11289;52.524;13.694;2024-03-25T09:14:32;6.43;;;3.08;;
22240;SDS011;11289;52.524;13.694;2024-03-25T09:16:58;4.80;;;3.10;;
22240;SDS011;11289;52.524;13.694;2024-03-25T09:19:24;4.50;;;2.97;;
22240;SDS011;11289;52.524;13.694;2024-03-25T09:21:50;5.80;;;2.78;;
22240;SDS011;11289;52.524;13.694;2024-03-25T09:24:16;7.45;;;2.92;;
22240;SDS011;11289;52.524;13.694;2024-03-25T09:26:43;5.82;;;2.35;;
22240;SDS011;11289;52.524;13.694;2024-03-25T09:29:09;7.00;;;2.50;;
22240;SDS011;11289;52.524;13.694;2024-03-25T09:31:37;5.95;;;3.15;;
22240;SDS011;11289;52.524;13.694;2024-03-25T09:34:03;6.72;;;3.22;;
22240;SDS011;11289;52.524;13.694;2024-03-25T09:36:29;4.75;;;2.38;;
22240;SDS011;11289;52.524;13.694;2024-03-25T09:38:55;3.38;;;2.38;;
22240;SDS011;11289;52.524;13.694;2024-03-25T09:41:21;3.58;;;2.67;;
22240;SDS011;11289;52.524;13.694;2024-03-25T09:43:48;3.92;;;2.30;;
22240;SDS011;11289;52.524;13.694;2024-03-25T09:46:17;5.63;;;3.35;;
22240;SDS011;11289;52.524;13.694;2024-03-25T09:48:43;6.97;;;2.85;;
22240;SDS011;11289;52.524;13.694;2024-03-25T09:51:10;6.97;;;3.45;;
22240;SDS011;11289;52.524;13.694;2024-03-25T09:53:36;7.00;;;3.83;;
22240;SDS011;11289;52.524;13.694;2024-03-25T09:56:02;7.50;;;3.38;;
22240;SDS011;11289;52.524;13.694;2024-03-25T09:58:28;5.88;;;2.60;;
22240;SDS011;11289;52.524;13.694;2024-03-25T10:00:55;5.13;;;3.45;;
22240;SDS011;11289;52.524;13.694;2024-03-25T10:03:23;7.50;;;4.10;;
22240;SDS011;11289;52.524;13.694;2024-03-25T10:05:49;6.20;;;3.90;;
22240;SDS011;11289;52.524;13.694;2024-03-25T10:08:22;8.80;;;3.97;;
22240;SDS011;11289;52.524;13.694;2024-03-25T10:10:48;5.50;;;3.22;;
22240;SDS011;11289;52.524;13.694;2024-03-25T10:13:15;5.53;;;3.22;;
22240;SDS011;11289;52.524;13.694;2024-03-25T10:15:41;5.57;;;4.10;;
22240;SDS011;11289;52.524;13.694;2024-03-25T10:18:07;4.75;;;3.22;;
22240;SDS011;11289;52.524;13.694;2024-03-25T10:20:33;5.00;;;2.85;;
22240;SDS011;11289;52.524;13.694;2024-03-25T10:23:00;2.70;;;2.22;;
22240;SDS011;11289;52.524;13.694;2024-03-25T10:25:27;3.65;;;1.90;;
22240;SDS011;11289;52.524;13.694;2024-03-25T10:27:54;2.70;;;1.92;;
22240;SDS011;11289;52.524;13.694;2024-03-25T10:30:20;4.18;;;2.08;;
22240;SDS011;11289;52.524;13.694;2024-03-25T10:32:46;6.60;;;2.15;;
22240;SDS011;11289;52.524;13.694;2024-03-25T10:35:24;5.90;;;3.10;;
22240;SDS011;11289;52.524;13.694;2024-03-25T10:37:53;6.30;;;2.40;;
22240;SDS011;11289;52.524;13.694;2024-03-25T10:40:22;4.90;;;2.63;;
22240;SDS011;11289;52.524;13.694;2024-03-25T10:42:54;7.32;;;2.80;;
22240;SDS011;11289;52.524;13.694;2024-03-25T10:45:34;7.93;;;3.70;;
22240;SDS011;11289;52.524;13.694;2024-03-25T10:48:47;4.03;;;2.70;;
22240;SDS011;11289;52.524;13.694;2024-03-25T10:50:56;5.18;;;2.63;;
22240;SDS011;11289;52.524;13.694;2024-03-25T10:53:25;5.10;;;3.08;;
22240;SDS011;11289;52.524;13.694;2024-03-25T10:55:54;6.72;;;3.67;;
22240;SDS011;11289;52.524;13.694;2024-03-25T10:58:21;9.55;;;3.90;;
22240;SDS011;11289;52.524;13.694;2024-03-25T11:00:48;6.75;;;3.20;;
22240;SDS011;11289;52.524;13.694;2024-03-25T11:03:16;6.97;;;2.88;;
22240;SDS011;11289;52.524;13.694;2024-03-25T11:05:42;11.00;;;4.75;;
22240;SDS011;11289;52.524;13.694;2024-03-25T11:08:11;7.88;;;4.40;;
22240;SDS011;11289;52.524;13.694;2024-03-25T11:10:42;8.68;;;3.88;;
22240;SDS011;11289;52.524;13.694;2024-03-25T11:13:09;6.57;;;3.10;;
22240;SDS011;11289;52.524;13.694;2024-03-25T11:15:37;5.00;;;2.97;;
22240;SDS011;11289;52.524;13.694;2024-03-25T11:18:12;3.78;;;2.60;;
22240;SDS011;11289;52.524;13.694;2024-03-25T11:20:39;7.53;;;3.75;;
22240;SDS011;11289;52.524;13.694;2024-03-25T11:23:12;7.53;;;4.05;;
22240;SDS011;11289;52.524;13.694;2024-03-25T11:25:39;7.22;;;3.10;;
22240;SDS011;11289;52.524;13.694;2024-03-25T11:28:06;4.60;;;2.60;;
22240;SDS011;11289;52.524;13.694;2024-03-25T11:30:33;5.65;;;3.03;;
22240;SDS011;11289;52.524;13.694;2024-03-25T11:33:01;4.28;;;2.20;;
22240;SDS011;11289;52.524;13.694;2024-03-25T11:35:28;4.30;;;2.08;;
22240;SDS011;11289;52.524;13.694;2024-03-25T11:37:53;7.80;;;2.45;;
22240;SDS011;11289;52.524;13.694;2024-03-25T11:40:20;4.88;;;2.05;;
22240;SDS011;11289;52.524;13.694;2024-03-25T11:42:46;4.38;;;1.65;;
22240;SDS011;11289;52.524;13.694;2024-03-25T11:45:16;3.92;;;1.40;;
22240;SDS011;11289;52.524;13.694;2024-03-25T11:47:43;2.40;;;1.15;;
22240;SDS011;11289;52.524;13.694;2024-03-25T11:50:13;2.33;;;1.20;;
22240;SDS011;11289;52.524;13.694;2024-03-25T11:52:43;2.90;;;1.10;;
22240;SDS011;11289;52.524;13.694;2024-03-25T11:55:09;3.08;;;1.42;;
22240;SDS011;11289;52.524;13.694;2024-03-25T11:57:37;2.72;;;1.10;;
22240;SDS011;11289;52.524;13.694;2024-03-25T12:00:04;3.67;;;1.40;;
22240;SDS011;11289;52.524;13.694;2024-03-25T12:02:31;3.17;;;1.45;;
22240;SDS011;11289;52.524;13.694;2024-03-25T12:04:57;2.67;;;1.40;;
22240;SDS011;11289;52.524;13.694;2024-03-25T12:07:23;3.58;;;2.13;;
22240;SDS011;11289;52.524;13.694;2024-03-25T12:09:50;3.10;;;1.88;;
22240;SDS011;11289;52.524;13.694;2024-03-25T12:12:34;3.92;;;1.95;;
22240;SDS011;11289;52.524;13.694;2024-03-25T12:15:00;4.50;;;1.75;;
22240;SDS011;11289;52.524;13.694;2024-03-25T12:17:28;4.70;;;1.67;;
22240;SDS011;11289;52.524;13.694;2024-03-25T12:20:01;2.35;;;1.50;;
22240;SDS011;11289;52.524;13.694;2024-03-25T12:22:33;4.35;;;2.05;;
22240;SDS011;11289;52.524;13.694;2024-03-25T12:25:01;2.65;;;1.95;;
22240;SDS011;11289;52.524;13.694;2024-03-25T12:27:28;2.78;;;2.00;;
22240;SDS011;11289;52.524;13.694;2024-03-25T12:29:58;2.55;;;1.83;;
22240;SDS011;11289;52.524;13.694;2024-03-25T12:32:41;3.60;;;1.83;;
22240;SDS011;11289;52.524;13.694;2024-03-25T12:35:09;4.00;;;1.92;;
22240;SDS011;11289;52.524;13.694;2024-03-25T12:37:36;3.83;;;1.95;;
22240;SDS011;11289;52.524;13.694;2024-03-25T12:40:04;2.30;;;1.60;;
22240;SDS011;11289;52.524;13.694;2024-03-25T12:42:32;4.25;;;2.10;;
22240;SDS011;11289;52.524;13.694;2024-03-25T12:44:58;3.00;;;1.70;;
22240;SDS011;11289;52.524;13.694;2024-03-25T12:47:24;3.15;;;1.95;;
22240;SDS011;11289;52.524;13.694;2024-03-25T12:49:50;2.17;;;1.73;;
22240;SDS011;11289;52.524;13.694;2024-03-25T12:52:16;3.42;;;1.55;;
22240;SDS011;11289;52.524;13.694;2024-03-25T12:54:42;3.38;;;1.92;;
22240;SDS011;11289;52.524;13.694;2024-03-25T12:57:09;2.78;;;1.42;;
22240;SDS011;11289;52.524;13.694;2024-03-25T12:59:36;2.50;;;1.20;;
22240;SDS011;11289;52.524;13.694;2024-03-25T13:02:02;2.60;;;1.40;;
22240;SDS011;11289;52.524;13.694;2024-03-25T13:04:28;1.35;;;1.17;;
22240;SDS011;11289;52.524;13.694;2024-03-25T13:06:54;5.15;;;1.27;;
22240;SDS011;11289;52.524;13.694;2024-03-25T13:09:20;3.42;;;1.00;;
22240;SDS011;11289;52.524;13.694;2024-03-25T13:11:46;2.75;;;1.15;;
22240;SDS011;11289;52.524;13.694;2024-03-25T13:14:13;2.08;;;1.25;;
22240;SDS011;11289;52.524;13.694;2024-03-25T13:16:39;4.65;;;1.30;;
22240;SDS011;11289;52.524;13.694;2024-03-25T13:19:06;4.28;;;1.55;;
22240;SDS011;11289;52.524;13.694;2024-03-25T13:21:32;2.83;;;1.20;;
22240;SDS011;11289;52.524;13.694;2024-03-25T13:23:58;2.58;;;1.45;;
22240;SDS011;11289;52.524;13.694;2024-03-25T13:26:24;2.35;;;0.85;;
22240;SDS011;11289;52.524;13.694;2024-03-25T13:28:51;1.55;;;0.80;;
22240;SDS011;11289;52.524;13.694;2024-03-25T13:31:18;3.05;;;0.88;;
22240;SDS011;11289;52.524;13.694;2024-03-25T13:33:44;1.95;;;0.93;;
22240;SDS011;11289;52.524;13.694;2024-03-25T13:36:10;2.45;;;1.38;;
22240;SDS011;11289;52.524;13.694;2024-03-25T13:38:36;2.47;;;1.38;;
22240;SDS011;11289;52.524;13.694;2024-03-25T13:41:02;2.75;;;1.40;;
22240;SDS011;11289;52.524;13.694;2024-03-25T13:43:28;2.40;;;1.48;;
22240;SDS011;11289;52.524;13.694;2024-03-25T13:45:54;2.45;;;1.65;;
22240;SDS011;11289;52.524;13.694;2024-03-25T13:48:20;3.17;;;1.55;;
22240;SDS011;11289;52.524;13.694;2024-03-25T13:50:46;2.28;;;1.20;;
22240;SDS011;11289;52.524;13.694;2024-03-25T13:53:12;4.05;;;1.17;;
22240;SDS011;11289;52.524;13.694;2024-03-25T13:55:38;4.88;;;1.30;;
22240;SDS011;11289;52.524;13.694;2024-03-25T13:58:04;1.17;;;1.00;;
22240;SDS011;11289;52.524;13.694;2024-03-25T14:00:31;3.00;;;1.40;;
22240;SDS011;11289;52.524;13.694;2024-03-25T14:02:59;2.30;;;1.00;;
22240;SDS011;11289;52.524;13.694;2024-03-25T14:05:25;1.02;;;0.52;;
22240;SDS011;11289;52.524;13.694;2024-03-25T14:07:51;4.13;;;1.10;;
22240;SDS011;11289;52.524;13.694;2024-03-25T14:10:17;5.53;;;1.40;;
22240;SDS011;11289;52.524;13.694;2024-03-25T14:12:43;2.20;;;1.20;;
22240;SDS011;11289;52.524;13.694;2024-03-25T14:15:09;1.27;;;1.10;;
22240;SDS011;11289;52.524;13.694;2024-03-25T14:17:35;3.42;;;1.27;;
22240;SDS011;11289;52.524;13.694;2024-03-25T14:20:01;1.75;;;1.52;;
22240;SDS011;11289;52.524;13.694;2024-03-25T14:22:27;5.50;;;1.50;;
22240;SDS011;11289;52.524;13.694;2024-03-25T14:24:53;3.03;;;1.20;;
22240;SDS011;11289;52.524;13.694;2024-03-25T14:27:23;2.38;;;1.40;;
22240;SDS011;11289;52.524;13.694;2024-03-25T14:29:49;2.20;;;1.52;;
22240;SDS011;11289;52.524;13.694;2024-03-25T14:32:18;2.00;;;1.40;;